Knickerbocker — WDC7987 — position and weather

sailwx.info

Track history (hours):
 
Tides and Currents Weather Stations Pressure Air Temp Water Temp Dewpoint Dewpoint Depression Visibility Wind Speed Wind Dir Waves Ship Positions

Knickerbocker

Owner: Christopher Corp., Newport, RI. More information available from US FCC via Universal Licensing System and Coast Guard Vessel Documentation Center.

Last reported at 2015-Jul-03 23:32 UTC. Time now 2015-Jul-03 23:47 UTC.
Position N 40°53' W 073°31'.

Length 36 m; draft 3.6 m.

Type: Pleasure craft. MMSI: 367079960.

Date/timePositionNaut miles runAvg speedWind from/ knotsBaromVisibWave heightAir tempDewpointWater temp
2015-Jul-03 23:32N 40°53' W 073°31'1 0.1
2015-Jul-03 09:33N 40°53' W 073°32'0 0.0
2015-Jul-03 08:33N 40°53' W 073°32'0 0.0
2015-Jul-03 07:33N 40°53' W 073°32'0 0.0
2015-Jul-03 06:33N 40°53' W 073°32'0 0.0
2015-Jul-03 05:18N 40°53' W 073°32'0 0.0
2015-Jul-03 04:33N 40°53' W 073°32'0 0.0
2015-Jul-03 03:24N 40°53' W 073°32'0 0.0
2015-Jul-03 02:33N 40°53' W 073°32'0 0.0
2015-Jul-03 01:33N 40°53' W 073°32'0 0.0
2015-Jul-03 00:33N 40°53' W 073°32'0 0.0
2015-Jul-02 23:33N 40°53' W 073°32'0 0.0
2015-Jul-02 14:30N 40°53' W 073°32'0 0.0
2015-Jul-02 12:30N 40°53' W 073°32'0 0.0
2015-Jul-02 09:33N 40°53' W 073°32'0 0.0
2015-Jul-02 07:21N 40°53' W 073°32'0 0.0
2015-Jul-01 12:06N 40°53' W 073°32'0 0.0
2015-Jul-01 06:09N 40°53' W 073°32'0 0.0
2015-Jul-01 05:12N 40°53' W 073°32'0 0.0
2015-Jul-01 04:27N 40°53' W 073°32'0 0.0
2015-Jul-01 03:33N 40°53' W 073°32'0 0.0
2015-Jul-01 02:32N 40°53' W 073°32'0 0.0
2015-Jul-01 01:32N 40°53' W 073°32'0 0.0
2015-Jul-01 00:33N 40°53' W 073°32'0 0.0
2015-Jun-30 23:30N 40°53' W 073°32'0 0.0
2015-Jun-30 13:23N 40°53' W 073°32'0 0.0
2015-Jun-30 12:11N 40°53' W 073°32'0 0.0
2015-Jun-30 11:33N 40°53' W 073°32'0 0.0
2015-Jun-30 08:05N 40°53' W 073°32'0 0.0
2015-Jun-30 07:32N 40°53' W 073°32'0 0.0
2015-Jun-30 06:33N 40°53' W 073°32'0 0.0
2015-Jun-30 04:23N 40°53' W 073°32'0 0.0
2015-Jun-30 03:32N 40°53' W 073°32'0 0.0
2015-Jun-30 02:32N 40°53' W 073°32'0 0.0
2015-Jun-28 01:31N 40°53' W 073°32'0 0.0
2015-Jun-27 23:13N 40°53' W 073°32'0 0.0
2015-Jun-27 22:31N 40°53' W 073°32'0 0.0
2015-Jun-27 17:07N 40°53' W 073°32'0 0.0
2015-Jun-27 15:25N 40°53' W 073°32'0 0.0
2015-Jun-27 14:22N 40°53' W 073°32'0 0.0
2015-Jun-27 13:31N 40°53' W 073°32'0 0.0
2015-Jun-27 12:31N 40°53' W 073°32'0 0.0
2015-Jun-27 11:31N 40°53' W 073°32'0 0.0
2015-Jun-27 10:31N 40°53' W 073°32'0 0.0
2015-Jun-27 09:31N 40°53' W 073°32'0 0.0
2015-Jun-27 08:31N 40°53' W 073°32'0 0.0
2015-Jun-27 07:31N 40°53' W 073°32'0 0.0
2015-Jun-27 06:31N 40°53' W 073°32'0 0.0
2015-Jun-27 04:31N 40°53' W 073°32'0 0.0
2015-Jun-27 03:04N 40°53' W 073°32'0 0.0
2015-Jun-27 02:16N 40°53' W 073°32'0 0.0
2015-Jun-26 11:25N 40°53' W 073°32'0 0.0
2015-Jun-26 10:31N 40°53' W 073°32'0 0.0
2015-Jun-26 09:28N 40°53' W 073°32'0 0.0
2015-Jun-26 08:31N 40°53' W 073°32'0 0.0
2015-Jun-26 07:31N 40°53' W 073°32'0 0.0
2015-Jun-26 03:25N 40°53' W 073°32'0 0.0
2015-Jun-26 02:25N 40°53' W 073°32'0 0.0
2015-Jun-26 01:25N 40°53' W 073°32'0 0.0
2015-Jun-26 00:31N 40°53' W 073°32'5 1.0
2015-Jun-25 19:11N 40°58' W 073°30'3 4.5
2015-Jun-25 18:34N 41°01' W 073°30'4 3.5
2015-Jun-25 17:32N 40°57' W 073°31'4 0.6
2015-Jun-25 10:28N 40°53' W 073°32'0 0.0
2015-Jun-25 09:28N 40°53' W 073°32'0 0.0
2015-Jun-25 07:22N 40°53' W 073°32'0 0.0
2015-Jun-24 05:31N 40°53' W 073°32'  
Track history (hours):
 
Tides and Currents Weather Stations Pressure Air Temp Water Temp Dewpoint Dewpoint Depression Visibility Wind Speed Wind Dir Waves Ship Positions

Knickerbocker

Owner: Christopher Corp., Newport, RI. More information available from US FCC via Universal Licensing System and Coast Guard Vessel Documentation Center.

Last reported at 2015-Jul-03 23:32 UTC. Time now 2015-Jul-03 23:47 UTC.
Position N 40°53' W 073°31'.

Length 36 m; draft 3.6 m.

Type: Pleasure craft. MMSI: 367079960.

Date/timePositionNaut miles runAvg speedWind from/ knotsBaromVisibWave heightAir tempDewpointWater temp
2015-Jul-03 23:32N 40°53' W 073°31'1 0.1
2015-Jul-03 09:33N 40°53' W 073°32'0 0.0
2015-Jul-03 08:33N 40°53' W 073°32'0 0.0
2015-Jul-03 07:33N 40°53' W 073°32'0 0.0
2015-Jul-03 06:33N 40°53' W 073°32'0 0.0
2015-Jul-03 05:18N 40°53' W 073°32'0 0.0
2015-Jul-03 04:33N 40°53' W 073°32'0 0.0
2015-Jul-03 03:24N 40°53' W 073°32'0 0.0
2015-Jul-03 02:33N 40°53' W 073°32'0 0.0
2015-Jul-03 01:33N 40°53' W 073°32'0 0.0
2015-Jul-03 00:33N 40°53' W 073°32'0 0.0
2015-Jul-02 23:33N 40°53' W 073°32'0 0.0
2015-Jul-02 14:30N 40°53' W 073°32'0 0.0
2015-Jul-02 12:30N 40°53' W 073°32'0 0.0
2015-Jul-02 09:33N 40°53' W 073°32'0 0.0
2015-Jul-02 07:21N 40°53' W 073°32'0 0.0
2015-Jul-01 12:06N 40°53' W 073°32'0 0.0
2015-Jul-01 06:09N 40°53' W 073°32'0 0.0
2015-Jul-01 05:12N 40°53' W 073°32'0 0.0
2015-Jul-01 04:27N 40°53' W 073°32'0 0.0
2015-Jul-01 03:33N 40°53' W 073°32'0 0.0
2015-Jul-01 02:32N 40°53' W 073°32'0 0.0
2015-Jul-01 01:32N 40°53' W 073°32'0 0.0
2015-Jul-01 00:33N 40°53' W 073°32'0 0.0
2015-Jun-30 23:30N 40°53' W 073°32'0 0.0
2015-Jun-30 13:23N 40°53' W 073°32'0 0.0
2015-Jun-30 12:11N 40°53' W 073°32'0 0.0
2015-Jun-30 11:33N 40°53' W 073°32'0 0.0
2015-Jun-30 08:05N 40°53' W 073°32'0 0.0
2015-Jun-30 07:32N 40°53' W 073°32'0 0.0
2015-Jun-30 06:33N 40°53' W 073°32'0 0.0
2015-Jun-30 04:23N 40°53' W 073°32'0 0.0
2015-Jun-30 03:32N 40°53' W 073°32'0 0.0
2015-Jun-30 02:32N 40°53' W 073°32'0 0.0
2015-Jun-28 01:31N 40°53' W 073°32'0 0.0
2015-Jun-27 23:13N 40°53' W 073°32'0 0.0
2015-Jun-27 22:31N 40°53' W 073°32'0 0.0
2015-Jun-27 17:07N 40°53' W 073°32'0 0.0
2015-Jun-27 15:25N 40°53' W 073°32'0 0.0
2015-Jun-27 14:22N 40°53' W 073°32'0 0.0
2015-Jun-27 13:31N 40°53' W 073°32'0 0.0
2015-Jun-27 12:31N 40°53' W 073°32'0 0.0
2015-Jun-27 11:31N 40°53' W 073°32'0 0.0
2015-Jun-27 10:31N 40°53' W 073°32'0 0.0
2015-Jun-27 09:31N 40°53' W 073°32'0 0.0
2015-Jun-27 08:31N 40°53' W 073°32'0 0.0
2015-Jun-27 07:31N 40°53' W 073°32'0 0.0
2015-Jun-27 06:31N 40°53' W 073°32'0 0.0
2015-Jun-27 04:31N 40°53' W 073°32'0 0.0
2015-Jun-27 03:04N 40°53' W 073°32'0 0.0
2015-Jun-27 02:16N 40°53' W 073°32'0 0.0
2015-Jun-26 11:25N 40°53' W 073°32'0 0.0
2015-Jun-26 10:31N 40°53' W 073°32'0 0.0
2015-Jun-26 09:28N 40°53' W 073°32'0 0.0
2015-Jun-26 08:31N 40°53' W 073°32'0 0.0
2015-Jun-26 07:31N 40°53' W 073°32'0 0.0
2015-Jun-26 03:25N 40°53' W 073°32'0 0.0
2015-Jun-26 02:25N 40°53' W 073°32'0 0.0
2015-Jun-26 01:25N 40°53' W 073°32'0 0.0
2015-Jun-26 00:31N 40°53' W 073°32'5 1.0
2015-Jun-25 19:11N 40°58' W 073°30'3 4.5
2015-Jun-25 18:34N 41°01' W 073°30'4 3.5
2015-Jun-25 17:32N 40°57' W 073°31'4 0.6
2015-Jun-25 10:28N 40°53' W 073°32'0 0.0
2015-Jun-25 09:28N 40°53' W 073°32'0 0.0
2015-Jun-25 07:22N 40°53' W 073°32'0 0.0
2015-Jun-24 05:31N 40°53' W 073°32'  

Dump ship's entire track history